createdAt,value
2019-04-04T00:00:57.102Z,8.00
2019-04-04T00:01:57.132Z,8.00
2019-04-04T00:02:57.085Z,8.00
2019-04-04T00:03:57.079Z,8.00
2019-04-04T00:04:57.876Z,8.00
2019-04-04T00:05:57.131Z,8.00
2019-04-04T00:06:58.090Z,8.00
2019-04-04T00:07:58.108Z,8.00
2019-04-04T00:08:57.048Z,8.00
2019-04-04T00:09:57.033Z,8.00
2019-04-04T00:10:57.031Z,8.00
2019-04-04T00:11:57.023Z,8.00
2019-04-04T00:12:57.012Z,8.00
2019-04-04T00:13:57.005Z,8.00
2019-04-04T00:14:57.011Z,8.00
2019-04-04T00:15:56.992Z,8.00
2019-04-04T00:16:56.981Z,8.00
2019-04-04T00:17:56.979Z,8.00
2019-04-04T00:18:58.622Z,8.00
2019-04-04T00:19:56.965Z,8.00
2019-04-04T00:20:56.954Z,8.00
2019-04-04T00:21:56.946Z,8.00
2019-04-04T00:22:56.942Z,8.00
2019-04-04T00:23:56.933Z,8.00
2019-04-04T00:24:56.925Z,8.00
2019-04-04T00:25:56.920Z,8.00
2019-04-04T00:26:56.917Z,8.00
2019-04-04T00:27:56.905Z,8.00
2019-04-04T00:28:56.900Z,8.00
2019-04-04T00:29:56.890Z,8.00
2019-04-04T00:30:56.887Z,8.00
2019-04-04T00:31:56.875Z,8.00
2019-04-04T00:32:56.870Z,8.00
2019-04-04T00:33:56.861Z,8.00
2019-04-04T00:34:57.824Z,8.00
2019-04-04T00:35:56.850Z,8.00
2019-04-04T00:36:56.841Z,8.00
2019-04-04T00:37:56.834Z,8.00
2019-04-04T00:38:56.829Z,8.00
2019-04-04T00:39:56.819Z,8.00
2019-04-04T00:40:56.813Z,8.00
2019-04-04T00:41:56.804Z,8.00
2019-04-04T00:42:56.796Z,8.00
2019-04-04T00:43:56.793Z,8.00
2019-04-04T00:44:56.785Z,8.00
2019-04-04T00:45:56.778Z,8.00
2019-04-04T00:46:56.770Z,8.00
2019-04-04T00:47:56.767Z,8.00
2019-04-04T00:48:56.753Z,8.00
2019-04-04T00:49:56.747Z,8.00
2019-04-04T00:50:56.740Z,8.00
2019-04-04T00:51:56.733Z,8.00
2019-04-04T00:52:56.722Z,8.00
2019-04-04T00:53:56.718Z,8.00
2019-04-04T00:54:56.711Z,8.00
2019-04-04T00:55:56.705Z,8.00
2019-04-04T00:56:56.697Z,8.00
2019-04-04T00:57:56.690Z,8.00
2019-04-04T00:58:56.696Z,8.00
2019-04-04T00:59:56.679Z,8.00
2019-04-04T01:00:56.672Z,8.00
2019-04-04T01:01:56.978Z,8.00
2019-04-04T01:02:58.347Z,8.00
2019-04-04T01:03:56.648Z,8.00
2019-04-04T01:04:56.641Z,8.00
2019-04-04T01:05:56.633Z,8.00
2019-04-04T01:06:56.625Z,8.00
2019-04-04T01:07:56.619Z,8.00
2019-04-04T01:08:56.612Z,8.00
2019-04-04T01:09:56.605Z,8.00
2019-04-04T01:10:56.596Z,8.00
2019-04-04T01:11:56.590Z,8.00
2019-04-04T01:12:56.582Z,8.00
2019-04-04T01:13:57.925Z,8.00
2019-04-04T01:14:58.128Z,8.00
2019-04-04T01:15:56.561Z,8.00
2019-04-04T01:16:56.551Z,8.00
2019-04-04T01:17:56.545Z,8.00
2019-04-04T01:18:56.544Z,8.00
2019-04-04T01:19:56.532Z,8.00
2019-04-04T01:20:56.526Z,8.00
2019-04-04T01:21:56.514Z,8.00
2019-04-04T01:22:56.730Z,8.00
2019-04-04T01:23:58.410Z,8.00
2019-04-04T01:24:56.493Z,8.00
2019-04-04T01:25:56.486Z,8.00
2019-04-04T01:26:56.477Z,8.00
2019-04-04T01:27:56.474Z,8.00
2019-04-04T01:28:56.461Z,8.00
2019-04-04T01:29:56.457Z,8.00
2019-04-04T01:30:56.453Z,8.00
2019-04-04T01:31:56.440Z,8.00
2019-04-04T01:32:56.444Z,8.00
2019-04-04T01:33:56.426Z,8.00
2019-04-04T01:34:56.429Z,8.00
2019-04-04T01:35:56.409Z,8.00
2019-04-04T01:36:57.103Z,8.00
2019-04-04T01:37:58.133Z,8.00
2019-04-04T01:38:58.099Z,8.00
2019-04-04T01:39:56.382Z,8.00
2019-04-04T01:40:56.377Z,8.00
2019-04-04T01:41:56.366Z,8.00
2019-04-04T01:42:56.361Z,8.00
2019-04-04T01:44:04.771Z,8.00
2019-04-04T01:44:56.337Z,8.00
2019-04-04T01:45:56.346Z,8.00
2019-04-04T01:46:56.330Z,8.00
2019-04-04T01:47:56.347Z,8.00
2019-04-04T01:48:56.313Z,8.00
2019-04-04T01:49:56.303Z,8.00
2019-04-04T01:50:56.301Z,8.00
2019-04-04T01:51:57.817Z,8.00
2019-04-04T01:52:58.885Z,8.00
2019-04-04T01:53:56.273Z,8.00
2019-04-04T01:54:56.266Z,8.00
2019-04-04T01:55:56.261Z,8.00
2019-04-04T01:56:56.253Z,8.00
2019-04-04T01:57:56.245Z,8.00
2019-04-04T01:58:56.237Z,8.00
2019-04-04T01:59:56.229Z,8.00
2019-04-04T02:00:56.222Z,8.00
2019-04-04T02:01:56.218Z,8.00
2019-04-04T02:02:56.228Z,8.00
2019-04-04T02:03:56.204Z,8.00
2019-04-04T02:04:56.494Z,8.00
2019-04-04T02:05:58.130Z,8.00
2019-04-04T02:06:58.876Z,8.00
2019-04-04T02:07:56.170Z,8.00
2019-04-04T02:08:56.163Z,8.00
2019-04-04T02:09:56.152Z,8.00
2019-04-04T02:10:56.145Z,8.00
2019-04-04T02:11:56.145Z,8.00
2019-04-04T02:12:56.131Z,8.00
2019-04-04T02:13:56.123Z,8.00
2019-04-04T02:14:56.115Z,8.00
2019-04-04T02:15:56.114Z,8.00
2019-04-04T02:16:56.103Z,8.00
2019-04-04T02:17:56.093Z,8.00
2019-04-04T02:18:56.086Z,8.00
2019-04-04T02:19:56.450Z,8.00
2019-04-04T02:20:57.885Z,8.00
2019-04-04T02:21:56.062Z,8.00
2019-04-04T02:22:56.058Z,8.00
2019-04-04T02:23:56.046Z,8.00
2019-04-04T02:24:56.041Z,8.00
2019-04-04T02:25:56.031Z,8.00
2019-04-04T02:26:56.023Z,8.00
2019-04-04T02:27:56.017Z,8.00
2019-04-04T02:28:56.006Z,8.00
2019-04-04T02:29:56.009Z,8.00
2019-04-04T02:30:55.996Z,8.00
2019-04-04T02:31:55.987Z,8.00
2019-04-04T02:32:59.425Z,8.00
2019-04-04T02:33:55.970Z,8.00
2019-04-04T02:34:55.962Z,8.00
2019-04-04T02:35:55.956Z,8.00
2019-04-04T02:36:55.959Z,8.00
2019-04-04T02:37:56.208Z,8.00
2019-04-04T02:38:57.594Z,8.00
2019-04-04T02:39:55.928Z,8.00
2019-04-04T02:40:55.917Z,8.00
2019-04-04T02:41:55.908Z,8.00
2019-04-04T02:42:55.904Z,8.00
2019-04-04T02:43:59.361Z,8.00
2019-04-04T02:44:55.890Z,8.00
2019-04-04T02:45:55.892Z,8.00
2019-04-04T02:46:55.871Z,8.00
2019-04-04T02:47:55.869Z,8.00
2019-04-04T02:48:56.269Z,8.00
2019-04-04T02:49:55.847Z,8.00
2019-04-04T02:50:55.838Z,8.00
2019-04-04T02:51:55.836Z,8.00
2019-04-04T02:52:55.834Z,8.00
2019-04-04T02:53:55.816Z,8.00
2019-04-04T02:54:58.167Z,8.00
2019-04-04T02:55:55.841Z,8.00
2019-04-04T02:56:55.797Z,8.00
2019-04-04T02:57:55.787Z,8.00
2019-04-04T02:58:55.777Z,8.00
2019-04-04T02:59:55.776Z,8.00
2019-04-04T03:00:59.264Z,8.00
2019-04-04T03:01:55.758Z,8.00
2019-04-04T03:02:55.750Z,8.00
2019-04-04T03:03:55.739Z,8.00
2019-04-04T03:04:55.739Z,8.00
2019-04-04T03:05:55.721Z,8.00
2019-04-04T03:06:58.546Z,8.00
2019-04-04T03:07:55.717Z,8.00
2019-04-04T03:08:55.705Z,8.00
2019-04-04T03:09:55.692Z,8.00
2019-04-04T03:10:55.684Z,8.00
2019-04-04T03:11:55.676Z,8.00
2019-04-04T03:12:58.398Z,8.00
2019-04-04T03:13:55.662Z,8.00
2019-04-04T03:14:55.666Z,8.00
2019-04-04T03:15:55.645Z,8.00
2019-04-04T03:16:57.024Z,8.00
2019-04-04T03:17:55.633Z,8.00
2019-04-04T03:18:55.625Z,8.00
2019-04-04T03:19:55.617Z,8.00
2019-04-04T03:20:55.610Z,8.00
2019-04-04T03:21:56.152Z,8.00
2019-04-04T03:23:00.258Z,8.00
2019-04-04T03:23:55.589Z,8.00
2019-04-04T03:24:55.579Z,8.00
2019-04-04T03:25:55.575Z,8.00
2019-04-04T03:26:55.562Z,8.00
2019-04-04T03:27:58.201Z,8.00
2019-04-04T03:28:55.555Z,8.00
2019-04-04T03:29:55.542Z,8.00
2019-04-04T03:31:02.523Z,8.00
2019-04-04T03:31:55.523Z,8.00
2019-04-04T03:32:55.823Z,8.00
2019-04-04T03:33:55.507Z,8.00
2019-04-04T03:34:55.519Z,8.00
2019-04-04T03:35:59.880Z,8.00
2019-04-04T03:36:55.486Z,8.00
2019-04-04T03:37:55.477Z,8.00
2019-04-04T03:38:55.469Z,8.00
2019-04-04T03:39:55.459Z,8.00
2019-04-04T03:40:58.108Z,8.00
2019-04-04T03:41:55.446Z,8.00
2019-04-04T03:42:55.439Z,8.00
2019-04-04T03:43:55.437Z,8.00
2019-04-04T03:44:55.453Z,8.00
2019-04-04T03:46:00.175Z,8.00
2019-04-04T03:46:55.406Z,8.00
2019-04-04T03:47:55.403Z,8.00
2019-04-04T03:48:55.403Z,8.00
2019-04-04T03:49:57.636Z,8.00
2019-04-04T03:50:57.394Z,8.00
2019-04-04T03:51:55.387Z,8.00
2019-04-04T03:52:55.362Z,8.00
2019-04-04T03:53:55.351Z,8.00
2019-04-04T03:54:56.398Z,8.00
2019-04-04T03:56:00.167Z,8.00
2019-04-04T03:56:55.328Z,8.00
2019-04-04T03:57:55.438Z,8.00
2019-04-04T03:58:59.813Z,8.00
2019-04-04T03:59:55.310Z,8.00
2019-04-04T04:00:55.299Z,8.00
2019-04-04T04:01:55.291Z,8.00
2019-04-04T04:02:55.280Z,8.00
2019-04-04T04:03:55.697Z,8.00
2019-04-04T04:04:57.715Z,8.00
2019-04-04T04:05:55.258Z,8.00
2019-04-04T04:06:55.252Z,8.00
2019-04-04T04:07:55.252Z,8.00
2019-04-04T04:08:55.394Z,8.00
2019-04-04T04:09:59.294Z,8.00
2019-04-04T04:10:55.220Z,8.00
2019-04-04T04:11:55.217Z,8.00
2019-04-04T04:12:55.214Z,8.00
2019-04-04T04:13:55.202Z,8.00
2019-04-04T04:14:55.390Z,4.00
2019-04-04T04:15:55.179Z,8.00
2019-04-04T04:16:55.174Z,8.00
2019-04-04T04:17:55.166Z,8.00
2019-04-04T04:18:55.413Z,8.00
2019-04-04T04:19:55.152Z,8.00
2019-04-04T04:20:55.146Z,12.00
2019-04-04T04:21:55.133Z,8.00
2019-04-04T04:22:55.128Z,8.00
2019-04-04T04:23:56.920Z,12.00
2019-04-04T04:24:55.115Z,8.00
2019-04-04T04:25:55.114Z,8.00
2019-04-04T04:26:55.099Z,4.00
2019-04-04T04:27:55.187Z,8.00
2019-04-04T04:28:55.085Z,8.00
2019-04-04T04:29:55.072Z,8.00
2019-04-04T04:30:55.066Z,12.00
2019-04-04T04:31:55.058Z,8.00
2019-04-04T04:32:57.001Z,12.00
2019-04-04T04:33:55.039Z,12.00
2019-04-04T04:34:55.034Z,20.00
2019-04-04T04:35:55.033Z,20.00
2019-04-04T04:36:55.034Z,24.00
2019-04-04T04:37:55.006Z,28.00
2019-04-04T04:38:58.661Z,32.00
2019-04-04T04:39:55.006Z,36.00
2019-04-04T04:40:54.985Z,44.00
2019-04-04T04:41:54.977Z,52.00
2019-04-04T04:42:54.970Z,60.00
2019-04-04T04:43:54.965Z,68.00
2019-04-04T04:44:54.951Z,80.00
2019-04-04T04:45:54.951Z,88.00
2019-04-04T04:46:54.936Z,100.00
2019-04-04T04:47:57.087Z,112.00
2019-04-04T04:48:54.923Z,124.00
2019-04-04T04:49:55.506Z,128.00
2019-04-04T04:50:54.918Z,136.00
2019-04-04T04:51:54.898Z,144.00
2019-04-04T04:52:54.897Z,152.00
2019-04-04T04:53:54.880Z,160.00
2019-04-04T04:54:55.550Z,168.00
2019-04-04T04:55:54.867Z,184.00
2019-04-04T04:56:54.858Z,200.00
2019-04-04T04:57:56.529Z,212.00
2019-04-04T04:58:55.595Z,228.00
2019-04-04T04:59:54.838Z,240.00
2019-04-04T05:00:54.827Z,252.00
2019-04-04T05:01:54.819Z,264.00
2019-04-04T05:02:54.822Z,284.00
2019-04-04T05:03:56.488Z,292.00
2019-04-04T05:04:54.798Z,292.00
2019-04-04T05:05:54.814Z,296.00
2019-04-04T05:06:54.781Z,308.00
2019-04-04T05:07:55.137Z,336.00
2019-04-04T05:08:54.762Z,356.00
2019-04-04T05:09:54.753Z,364.00
2019-04-04T05:10:54.758Z,368.00
2019-04-04T05:11:54.755Z,392.00
2019-04-04T05:12:54.735Z,432.00
2019-04-04T05:13:56.125Z,468.00
2019-04-04T05:14:54.721Z,492.00
2019-04-04T05:15:54.706Z,508.00
2019-04-04T05:16:54.701Z,508.00
2019-04-04T05:17:54.695Z,500.00
2019-04-04T05:18:54.698Z,488.00
2019-04-04T05:19:54.676Z,460.00
2019-04-04T05:20:57.232Z,416.00
2019-04-04T05:21:54.660Z,380.00
2019-04-04T05:22:54.652Z,340.00
2019-04-04T05:23:54.648Z,320.00
2019-04-04T05:25:07.437Z,292.00
2019-04-04T05:25:54.636Z,292.00
2019-04-04T05:26:54.701Z,284.00
2019-04-04T05:27:54.618Z,276.00
2019-04-04T05:28:56.896Z,268.00
2019-04-04T05:29:54.612Z,256.00
2019-04-04T05:30:54.593Z,236.00
2019-04-04T05:31:54.594Z,232.00
2019-04-04T05:32:56.384Z,228.00
2019-04-04T05:33:54.572Z,220.00
2019-04-04T05:34:54.609Z,228.00
2019-04-04T05:35:54.574Z,244.00
2019-04-04T05:36:54.563Z,264.00
2019-04-04T05:37:54.552Z,276.00
2019-04-04T05:38:54.536Z,292.00
2019-04-04T05:39:55.436Z,320.00
2019-04-04T05:40:55.518Z,404.00
2019-04-04T05:41:54.512Z,448.00
2019-04-04T05:42:54.502Z,508.00
2019-04-04T05:43:54.497Z,492.00
2019-04-04T05:44:54.499Z,452.00
2019-04-04T05:45:54.476Z,436.00
2019-04-04T05:46:54.483Z,452.00
2019-04-04T05:47:56.313Z,440.00
2019-04-04T05:48:54.463Z,372.00
2019-04-04T05:49:54.450Z,364.00
2019-04-04T05:50:54.439Z,516.00
2019-04-04T05:51:54.432Z,660.00
2019-04-04T05:52:54.429Z,704.00
2019-04-04T05:53:54.433Z,716.00
2019-04-04T05:54:54.414Z,756.00
2019-04-04T05:55:54.398Z,812.00
2019-04-04T05:56:54.427Z,868.00
2019-04-04T05:57:54.411Z,912.00
2019-04-04T05:58:54.375Z,948.00
2019-04-04T05:59:55.975Z,968.00
2019-04-04T06:00:54.369Z,972.00
2019-04-04T06:01:54.361Z,968.00
2019-04-04T06:02:54.345Z,1036.00
2019-04-04T06:03:54.340Z,1152.00
2019-04-04T06:04:55.322Z,1212.00
2019-04-04T06:05:54.352Z,1216.00
2019-04-04T06:06:55.759Z,1224.00
2019-04-04T06:07:54.308Z,1272.00
2019-04-04T06:08:54.307Z,1288.00
2019-04-04T06:09:54.295Z,1328.00
2019-04-04T06:10:54.286Z,1432.00
2019-04-04T06:11:54.457Z,1540.00
2019-04-04T06:12:56.273Z,1596.00
2019-04-04T06:13:54.261Z,1660.00
2019-04-04T06:14:54.251Z,1708.00
2019-04-04T06:15:54.248Z,1728.00
2019-04-04T06:16:54.240Z,1756.00
2019-04-04T06:17:54.232Z,1828.00
2019-04-04T06:18:54.234Z,1772.00
2019-04-04T06:19:54.217Z,1608.00
2019-04-04T06:20:54.211Z,1464.00
2019-04-04T06:21:54.204Z,1420.00
2019-04-04T06:22:54.197Z,1416.00
2019-04-04T06:23:55.946Z,1392.00
2019-04-04T06:24:54.180Z,1364.00
2019-04-04T06:25:54.180Z,1332.00
2019-04-04T06:26:54.171Z,1304.00
2019-04-04T06:27:54.205Z,1304.00
2019-04-04T06:28:54.157Z,1312.00
2019-04-04T06:29:54.156Z,1328.00
2019-04-04T06:30:54.414Z,1340.00
2019-04-04T06:31:54.161Z,1348.00
2019-04-04T06:32:54.143Z,1352.00
2019-04-04T06:33:54.124Z,1360.00
2019-04-04T06:34:56.575Z,1364.00
2019-04-04T06:35:54.105Z,1380.00
2019-04-04T06:36:54.094Z,1392.00
2019-04-04T06:37:54.087Z,1392.00
2019-04-04T06:38:54.614Z,1416.00
2019-04-04T06:39:54.416Z,1388.00
2019-04-04T06:40:54.065Z,1392.00
2019-04-04T06:41:54.054Z,1392.00
2019-04-04T06:42:54.055Z,1392.00
2019-04-04T06:43:54.040Z,1380.00
2019-04-04T06:44:54.325Z,1372.00
2019-04-04T06:45:54.026Z,1360.00
2019-04-04T06:46:54.204Z,1360.00
2019-04-04T06:47:55.276Z,1372.00
2019-04-04T06:48:54.036Z,1384.00
2019-04-04T06:49:54.005Z,1408.00
2019-04-04T06:50:53.991Z,1428.00
2019-04-04T06:51:53.982Z,1472.00
2019-04-04T06:52:56.379Z,1512.00
2019-04-04T06:53:54.536Z,1524.00
2019-04-04T06:54:57.067Z,1508.00
2019-04-04T06:55:53.955Z,1508.00
2019-04-04T06:56:53.954Z,1468.00
2019-04-04T06:57:53.939Z,1460.00
2019-04-04T06:58:53.939Z,1468.00
2019-04-04T06:59:53.939Z,1460.00
2019-04-04T07:00:53.921Z,1432.00
2019-04-04T07:01:53.911Z,1424.00
2019-04-04T07:02:56.085Z,1424.00
2019-04-04T07:03:53.894Z,1440.00
2019-04-04T07:04:53.958Z,1484.00
2019-04-04T07:05:53.881Z,1528.00
2019-04-04T07:06:53.883Z,1580.00
2019-04-04T07:07:53.871Z,1640.00
2019-04-04T07:08:53.861Z,1652.00
2019-04-04T07:09:53.851Z,1672.00
2019-04-04T07:10:58.143Z,1756.00
2019-04-04T07:11:53.838Z,1912.00
2019-04-04T07:13:06.283Z,2052.00
2019-04-04T07:13:53.821Z,2160.00
2019-04-04T07:14:53.824Z,2276.00
2019-04-04T07:16:06.321Z,2388.00
2019-04-04T07:16:53.829Z,2500.00
2019-04-04T07:17:53.795Z,2572.00
2019-04-04T07:18:53.789Z,2600.00
2019-04-04T07:19:53.782Z,2596.00
2019-04-04T07:20:53.776Z,2544.00
2019-04-04T07:21:53.776Z,2492.00
2019-04-04T07:22:55.600Z,2596.00
2019-04-04T07:23:53.757Z,2648.00
2019-04-04T07:24:53.749Z,2620.00
2019-04-04T07:25:53.742Z,2612.00
2019-04-04T07:26:53.731Z,2700.00
2019-04-04T07:27:53.725Z,2708.00
2019-04-04T07:28:54.091Z,2740.00
2019-04-04T07:29:56.518Z,2716.00
2019-04-04T07:30:54.739Z,2740.00
2019-04-04T07:31:53.697Z,2732.00
2019-04-04T07:32:53.690Z,2728.00
2019-04-04T07:33:53.685Z,2684.00
2019-04-04T07:34:53.678Z,2632.00
2019-04-04T07:35:53.672Z,2576.00
2019-04-04T07:36:53.666Z,2552.00
2019-04-04T07:37:57.297Z,2496.00
2019-04-04T07:38:53.650Z,2372.00
2019-04-04T07:39:53.647Z,2424.00
2019-04-04T07:40:53.641Z,2492.00
2019-04-04T07:41:53.632Z,2484.00
2019-04-04T07:42:53.622Z,2428.00
2019-04-04T07:43:53.623Z,2364.00
2019-04-04T07:44:54.708Z,2340.00
2019-04-04T07:45:55.315Z,2396.00
2019-04-04T07:46:53.604Z,2432.00
2019-04-04T07:47:53.591Z,2508.00
2019-04-04T07:48:53.582Z,2632.00
2019-04-04T07:49:54.978Z,2656.00
2019-04-04T07:50:53.573Z,2696.00
2019-04-04T07:51:53.564Z,2660.00
2019-04-04T07:52:53.555Z,2668.00
2019-04-04T07:53:53.548Z,2668.00
2019-04-04T07:54:53.541Z,2848.00
2019-04-04T07:55:53.531Z,2780.00
2019-04-04T07:56:53.527Z,2848.00
2019-04-04T07:57:53.519Z,2952.00
2019-04-04T07:58:53.523Z,2872.00
2019-04-04T07:59:53.502Z,2768.00
2019-04-04T08:00:53.500Z,2644.00
2019-04-04T08:01:53.522Z,2504.00
2019-04-04T08:02:53.480Z,2452.00
2019-04-04T08:03:53.473Z,2432.00
2019-04-04T08:04:53.472Z,2480.00
2019-04-04T08:05:53.461Z,2536.00
2019-04-04T08:06:53.456Z,2584.00
2019-04-04T08:07:53.449Z,2652.00
2019-04-04T08:08:53.437Z,2660.00
2019-04-04T08:09:53.434Z,2664.00
2019-04-04T08:10:53.426Z,2728.00
2019-04-04T08:11:53.419Z,2816.00
2019-04-04T08:12:53.410Z,2900.00
2019-04-04T08:13:53.412Z,2868.00
2019-04-04T08:14:53.397Z,2728.00
2019-04-04T08:15:53.392Z,2700.00
2019-04-04T08:16:53.385Z,2664.00
2019-04-04T08:17:53.377Z,2724.00
2019-04-04T08:18:53.368Z,2768.00
2019-04-04T08:19:59.642Z,2760.00
2019-04-04T08:20:53.354Z,2788.00
2019-04-04T08:21:53.354Z,2796.00
2019-04-04T08:22:53.342Z,2736.00
2019-04-04T08:23:53.348Z,2652.00
2019-04-04T08:24:53.327Z,2580.00
2019-04-04T08:25:53.319Z,2576.00
2019-04-04T08:26:53.313Z,2624.00
2019-04-04T08:27:53.316Z,2620.00
2019-04-04T08:28:53.300Z,2624.00
2019-04-04T08:29:53.297Z,2668.00
2019-04-04T08:30:53.289Z,2712.00
2019-04-04T08:31:53.280Z,2760.00
2019-04-04T08:32:53.279Z,2792.00
2019-04-04T08:33:53.266Z,2760.00
2019-04-04T08:34:53.260Z,2692.00
2019-04-04T08:36:05.109Z,2664.00
2019-04-04T08:36:53.249Z,2704.00
2019-04-04T08:37:53.245Z,2804.00
2019-04-04T08:38:53.235Z,2888.00
2019-04-04T08:39:53.230Z,2944.00
2019-04-04T08:40:53.221Z,2992.00
2019-04-04T08:41:53.278Z,3068.00
2019-04-04T08:42:53.213Z,3172.00
2019-04-04T08:43:53.203Z,3272.00
2019-04-04T08:44:53.229Z,3268.00
2019-04-04T08:45:53.191Z,3428.00
2019-04-04T08:46:55.522Z,3996.00
2019-04-04T08:47:53.182Z,4272.00
2019-04-04T08:48:53.172Z,4392.00
2019-04-04T08:49:53.163Z,4104.00
2019-04-04T08:50:53.159Z,4000.00
2019-04-04T08:51:53.154Z,3924.00
2019-04-04T08:52:53.145Z,3832.00
2019-04-04T08:53:53.138Z,3868.00
2019-04-04T08:54:53.138Z,3880.00
2019-04-04T08:55:53.130Z,3908.00
2019-04-04T08:56:53.119Z,3896.00
2019-04-04T08:57:53.121Z,3836.00
2019-04-04T08:58:53.106Z,3820.00
2019-04-04T08:59:53.106Z,3676.00
2019-04-04T09:00:53.096Z,3632.00
2019-04-04T09:01:53.088Z,3644.00
2019-04-04T09:02:53.083Z,3704.00
2019-04-04T09:03:53.077Z,3772.00
2019-04-04T09:04:53.071Z,3864.00
2019-04-04T09:05:53.064Z,3844.00
2019-04-04T09:06:53.057Z,3840.00
2019-04-04T09:07:53.059Z,3688.00
2019-04-04T09:08:53.045Z,3440.00
2019-04-04T09:09:53.124Z,3316.00
2019-04-04T09:10:53.035Z,3380.00
2019-04-04T09:11:53.029Z,3368.00
2019-04-04T09:12:53.025Z,3392.00
2019-04-04T09:13:53.016Z,3532.00
2019-04-04T09:14:53.011Z,3764.00
2019-04-04T09:15:53.006Z,4112.00
2019-04-04T09:16:53.000Z,4312.00
2019-04-04T09:17:52.991Z,4388.00
2019-04-04T09:18:52.993Z,4352.00
2019-04-04T09:19:52.982Z,4316.00
2019-04-04T09:20:52.975Z,4348.00
2019-04-04T09:21:52.974Z,4728.00
2019-04-04T09:22:52.963Z,5200.00
2019-04-04T09:23:52.959Z,5188.00
2019-04-04T09:24:52.958Z,5132.00
2019-04-04T09:26:05.056Z,5176.00
2019-04-04T09:26:52.941Z,5372.00
2019-04-04T09:27:52.936Z,5568.00
2019-04-04T09:28:52.936Z,5560.00
2019-04-04T09:29:52.924Z,5272.00
2019-04-04T09:30:52.933Z,4880.00
2019-04-04T09:31:52.916Z,4720.00
2019-04-04T09:32:52.928Z,4424.00
2019-04-04T09:33:52.908Z,4156.00
2019-04-04T09:34:52.900Z,4148.00
2019-04-04T09:35:52.894Z,4208.00
2019-04-04T09:36:52.893Z,4300.00
2019-04-04T09:37:52.885Z,4456.00
2019-04-04T09:38:52.881Z,4512.00
2019-04-04T09:39:52.874Z,4556.00
2019-04-04T09:40:52.879Z,4560.00
2019-04-04T09:41:52.863Z,4564.00
2019-04-04T09:42:52.863Z,4592.00
2019-04-04T09:43:52.854Z,4800.00
2019-04-04T09:44:52.853Z,5304.00
2019-04-04T09:45:52.845Z,5344.00
2019-04-04T09:47:04.822Z,5184.00
2019-04-04T09:47:52.903Z,5040.00
2019-04-04T09:48:52.835Z,4928.00
2019-04-04T09:49:52.844Z,4920.00
2019-04-04T09:50:52.833Z,5036.00
2019-04-04T09:51:52.818Z,5036.00
2019-04-04T09:52:52.816Z,4816.00
2019-04-04T09:53:53.626Z,4404.00
2019-04-04T09:54:52.809Z,4212.00
2019-04-04T09:55:52.827Z,4180.00
2019-04-04T09:56:52.797Z,4228.00
2019-04-04T09:57:52.818Z,4300.00
2019-04-04T09:58:54.861Z,4376.00
2019-04-04T09:59:52.802Z,3988.00
2019-04-04T10:00:52.786Z,3508.00
2019-04-04T10:01:52.778Z,3336.00
2019-04-04T10:02:52.777Z,3364.00
2019-04-04T10:03:52.771Z,3320.00
2019-04-04T10:04:52.773Z,3400.00
2019-04-04T10:05:52.763Z,3400.00
2019-04-04T10:06:52.762Z,3456.00
2019-04-04T10:07:52.761Z,3328.00
2019-04-04T10:08:53.220Z,3088.00
2019-04-04T10:09:52.753Z,2928.00
2019-04-04T10:10:52.743Z,2984.00
2019-04-04T10:11:52.740Z,3028.00
2019-04-04T10:12:52.736Z,3004.00
2019-04-04T10:13:52.747Z,2900.00
2019-04-04T10:14:52.888Z,2884.00
2019-04-04T10:15:52.722Z,2848.00
2019-04-04T10:16:52.805Z,2792.00
2019-04-04T10:17:52.717Z,2728.00
2019-04-04T10:18:52.714Z,2752.00
2019-04-04T10:19:52.742Z,2756.00
2019-04-04T10:20:52.722Z,2772.00
2019-04-04T10:21:52.694Z,2768.00
2019-04-04T10:22:52.695Z,2792.00
2019-04-04T10:23:52.706Z,2800.00
2019-04-04T10:24:52.682Z,2824.00
2019-04-04T10:25:52.676Z,2840.00
2019-04-04T10:26:52.669Z,2840.00
2019-04-04T10:27:52.682Z,2844.00
2019-04-04T10:28:52.661Z,2812.00
2019-04-04T10:29:52.667Z,2780.00
2019-04-04T10:30:52.651Z,2724.00
2019-04-04T10:31:52.645Z,2692.00
2019-04-04T10:32:52.644Z,2752.00
2019-04-04T10:33:52.637Z,2788.00
2019-04-04T10:34:52.674Z,2784.00
2019-04-04T10:35:52.632Z,2788.00
2019-04-04T10:36:52.622Z,2808.00
2019-04-04T10:37:52.617Z,2788.00
2019-04-04T10:38:52.615Z,2788.00
2019-04-04T10:39:52.606Z,2768.00
2019-04-04T10:40:52.602Z,2796.00
2019-04-04T10:41:52.596Z,2828.00
2019-04-04T10:42:52.594Z,2864.00
2019-04-04T10:43:52.592Z,2632.00
2019-04-04T10:44:52.876Z,2708.00
2019-04-04T10:45:52.578Z,2892.00
2019-04-04T10:46:52.572Z,2936.00
2019-04-04T10:47:52.570Z,2972.00
2019-04-04T10:48:52.561Z,3028.00
2019-04-04T10:49:52.582Z,3220.00
2019-04-04T10:50:52.551Z,3356.00
2019-04-04T10:51:52.553Z,3432.00
2019-04-04T10:52:52.541Z,3452.00
2019-04-04T10:53:52.546Z,2924.00
2019-04-04T10:54:52.531Z,3120.00
2019-04-04T10:55:52.546Z,3332.00
2019-04-04T10:56:52.521Z,3208.00
2019-04-04T10:57:52.519Z,3120.00
2019-04-04T10:58:52.511Z,3500.00
2019-04-04T10:59:54.641Z,3916.00
2019-04-04T11:00:52.507Z,3808.00
2019-04-04T11:01:52.499Z,4048.00
2019-04-04T11:02:52.504Z,4816.00
2019-04-04T11:03:52.489Z,4864.00
2019-04-04T11:04:52.490Z,4792.00
2019-04-04T11:05:52.480Z,4672.00
2019-04-04T11:06:52.481Z,4464.00
2019-04-04T11:07:52.475Z,4396.00
2019-04-04T11:08:52.467Z,4308.00
2019-04-04T11:09:52.470Z,4160.00
2019-04-04T11:10:52.469Z,3952.00
2019-04-04T11:11:52.460Z,3908.00
2019-04-04T11:12:52.491Z,3884.00
2019-04-04T11:13:52.444Z,3880.00
2019-04-04T11:14:52.440Z,3872.00
2019-04-04T11:15:52.438Z,3792.00
2019-04-04T11:16:52.433Z,3732.00
2019-04-04T11:17:52.430Z,3752.00
2019-04-04T11:18:52.426Z,3860.00
2019-04-04T11:19:52.418Z,3948.00
2019-04-04T11:20:52.432Z,4092.00
2019-04-04T11:21:52.443Z,4020.00
2019-04-04T11:22:52.589Z,3608.00
2019-04-04T11:23:52.399Z,3004.00
2019-04-04T11:24:52.398Z,3300.00
2019-04-04T11:25:52.390Z,3564.00
2019-04-04T11:26:52.392Z,3572.00
2019-04-04T11:27:52.386Z,3676.00
2019-04-04T11:28:52.395Z,3704.00
2019-04-04T11:29:52.375Z,3624.00
2019-04-04T11:30:52.372Z,3524.00
2019-04-04T11:31:52.500Z,3452.00
2019-04-04T11:32:52.361Z,3416.00
2019-04-04T11:33:52.356Z,3416.00
2019-04-04T11:34:53.439Z,3452.00
2019-04-04T11:35:52.378Z,3424.00
2019-04-04T11:36:52.864Z,3392.00
2019-04-04T11:37:52.337Z,3328.00
2019-04-04T11:38:52.347Z,3356.00
2019-04-04T11:39:54.919Z,3384.00
2019-04-04T11:40:52.335Z,3356.00
2019-04-04T11:41:52.320Z,3480.00
2019-04-04T11:42:52.316Z,3576.00
2019-04-04T11:43:52.312Z,3696.00
2019-04-04T11:44:52.307Z,3860.00
2019-04-04T11:45:52.301Z,3932.00
2019-04-04T11:46:52.675Z,3884.00
2019-04-04T11:47:52.313Z,3948.00
2019-04-04T11:48:52.287Z,4164.00
2019-04-04T11:49:52.288Z,4196.00
2019-04-04T11:50:52.280Z,4028.00
2019-04-04T11:51:52.283Z,3924.00
2019-04-04T11:52:52.273Z,3936.00
2019-04-04T11:53:52.268Z,3924.00
2019-04-04T11:54:52.263Z,3992.00
2019-04-04T11:55:52.257Z,4060.00
2019-04-04T11:56:52.253Z,4076.00
2019-04-04T11:57:52.309Z,4148.00
2019-04-04T11:58:52.243Z,4168.00
2019-04-04T11:59:52.240Z,4164.00
2019-04-04T12:00:52.235Z,4224.00
2019-04-04T12:01:52.233Z,4284.00
2019-04-04T12:02:52.225Z,4340.00
2019-04-04T12:03:52.229Z,4248.00
2019-04-04T12:04:52.266Z,4332.00
2019-04-04T12:05:52.214Z,4368.00
2019-04-04T12:06:52.208Z,4416.00
2019-04-04T12:07:52.204Z,4376.00
2019-04-04T12:08:52.204Z,4288.00
2019-04-04T12:09:52.198Z,4164.00
2019-04-04T12:10:52.197Z,4116.00
2019-04-04T12:11:52.188Z,4036.00
2019-04-04T12:12:52.239Z,3972.00
2019-04-04T12:13:52.181Z,3992.00
2019-04-04T12:14:52.177Z,3800.00
2019-04-04T12:15:52.227Z,3704.00
2019-04-04T12:16:52.288Z,3644.00
2019-04-04T12:17:52.165Z,3756.00
2019-04-04T12:18:52.160Z,3648.00
2019-04-04T12:19:52.157Z,3796.00
2019-04-04T12:20:52.149Z,4020.00
2019-04-04T12:21:52.145Z,4148.00
2019-04-04T12:22:52.142Z,4156.00
2019-04-04T12:23:52.138Z,4372.00
2019-04-04T12:24:52.143Z,4416.00
2019-04-04T12:25:52.129Z,4388.00
2019-04-04T12:26:52.129Z,4400.00
2019-04-04T12:27:52.126Z,4720.00
2019-04-04T12:28:52.117Z,4968.00
2019-04-04T12:29:52.112Z,4860.00
2019-04-04T12:30:52.111Z,4852.00
2019-04-04T12:31:52.160Z,4728.00
2019-04-04T12:32:52.106Z,4520.00
2019-04-04T12:33:52.097Z,4568.00